Tiempo atmosférico en la estación meteorológica de Ribadeo, Lugo (43 m.)



Fecha
DESCASC
Temp. máxima en grados centígrados (hora)
DESCASC
Temp. mínima en grados centígrados (hora)
DESCASC
Temp. media en grados centígrados
DESCASC
Racha de viento máxima en m/sg (hora)
DESCASC
Velocidad máxima media en intervalos de 10 minutos(hora)
DESCASC
Precipitaciones diarias en mm
DESCASC
Precipitaciones de 00:00 a 06:00 en mm
DESCASC
Precipitaciones de 06:00 a 12:00 en mm
DESCASC
Precipitaciones de 12:00 a 18:00 en mm
DESCASC
Precipitaciones de 18:00 a 24:00 en mm
DESCASC
24-05-2020 18.5 (14:40) 13.2 (23:59) 15.8 15.28 (14:50) 9.72 (15:30) 0 0 0 0 0
23-05-2020 18.4 (13:50) 13.5 (07:50) 15.9 9.17 (20:40) 5.83 (20:50) 0.4 0.4 0 0 0
22-05-2020 23.7 (11:40) 13.7 (01:10) 18.7 11.39 (09:00) 7.22 (09:00) 0 0 0 0 0
21-05-2020 19.3 (17:50) 13.9 (00:00) 16.6 6.11 (13:40) 3.89 (12:50) 0 0 0 0 0
20-05-2020 19 (10:00) 11.9 (00:00) 15.4 7.5 (16:20) 4.17 (16:20) 0 0 0 0 0
19-05-2020 18.8 (14:10) 13.3 (00:00) 16 7.78 (15:20) 5 (15:20) 0 0 0 0 0
18-05-2020 18.3 (15:50) 8.5 (00:00) 13.4 7.22 (15:10) 5.28 (14:40) 0 0 0 0 0
17-05-2020 17.5 (15:20) 7.9 (00:00) 12.7 9.44 (16:10) 6.11 (16:10) 0 0 0 0 0
16-05-2020 16.9 (15:00) 10.1 (00:00) 13.5 9.72 (16:00) 7.22 (16:50) 0 0 0 0 0
15-05-2020 15.8 (14:20) 11.8 (00:00) 13.8 10.28 (17:20) 6.39 (19:30) 0.6 0.4 0.2 0 0
14-05-2020 13.9 (00:00) 11.9 (00:00) 12.9 12.78 (10:30) 7.78 (09:10) 0.8 0 0.2 0.4 0.2
13-05-2020 15.8 (15:20) 11.7 (00:00) 13.8 11.11 (21:40) 7.22 (21:40) 0 0 0 0 0
12-05-2020 14.3 (13:40) 12.3 (00:00) 13.3 12.78 (13:00) 8.06 (12:20) 1 0 0 0.6 0.4
11-05-2020 19.4 (14:30) 10.2 (00:00) 14.8 10.83 (21:30) 6.39 (19:00) 0 0 0 0 0
10-05-2020 17.5 (17:00) 12.8 (00:00) 15.2 5.28 (17:50) 2.78 (17:30) 2 0.4 1.6 0 0
09-05-2020 15.6 (14:50) 13.4 (00:00) 14.5 7.78 (15:20) 5 (15:20) 14.6 0.2 2 7 5.4
08-05-2020 16.2 (15:40) 14 (00:00) 15.1 4.17 (12:40) 2.78 (12:50) 1.2 0 0 0 1.2
07-05-2020 18 (15:10) 12 (00:00) 15 5 (15:50) 2.78 (13:30) 0 0 0 0 0
06-05-2020 20.4 (10:40) 12.5 (00:00) 16.4 8.33 (16:20) 5.56 (15:10) 0 0 0 0 0
05-05-2020 23.8 (15:40) 13.4 (00:00) 18.6 11.94 (01:00) 6.39 (20:40) 0 0 0 0 0
04-05-2020 24.1 (11:50) 11.3 (00:00) 17.7 27.22 (17:20) 9.17 (17:20) 19 0 0 18.8 0.2
03-05-2020 19.8 (15:00) 11.7 (00:00) 15.7 10 (15:20) 6.67 (14:20) 0 0 0 0 0
02-05-2020 24.7 (17:40) 15.9 (00:00) 20.3 14.72 (16:30) 8.33 (16:30) 0 0 0 0 0
01-05-2020 23.2 (16:40) 16.5 (00:00) 19.9 16.11 (09:00) 9.17 (17:10) 0.6 0.4 0.2 0 0
30-04-2020 19.7 (18:20) 12 (00:00) 15.9 18.61 (16:50) 9.72 (20:20) 1.4 1 0.2 0.2 0
29-04-2020 17.6 (16:10) 12.8 (00:00) 15.2 17.22 (23:40) 9.17 (02:00) 0.8 0 0.2 0.6 0

Gráficas

Temp. máximas Temp. mínimas Temp. medias Precipitaciones Rachas de viento máximas Velocidades máximas media en intervalos de 10 minutos

Datos horarios

Fecha y hora oficial Temperatura (ºC) Velocidad del viento (km/h) Dirección del viento Racha (km/h) Dirección de racha Precipitación (mm) Presión (hPa) Tendencia (hPa) Humedad (%)
2020-05-28 23:00:00 16.7 3 Sudeste 6 Sur 0 -- -- 93
2020-05-28 22:00:00 17.6 0 Calma 5 Nordeste 0 -- -- 92
2020-05-28 21:00:00 18.8 2 Norte 9 Nordeste 0 -- -- 89
2020-05-28 20:00:00 19.8 5 Norte 10 Norte 0 -- -- 86
2020-05-28 19:00:00 20.6 5 Norte 11 Norte 0 -- -- 85
2020-05-28 18:00:00 20.9 6 Norte 13 Norte 0 -- -- 83
2020-05-28 17:00:00 21.3 8 Nordeste 15 Nordeste 0 -- -- 81
2020-05-28 16:00:00 21.7 8 Norte 15 Nordeste 0 -- -- 78
2020-05-28 15:00:00 21.6 8 Nordeste 13 Nordeste 0 -- -- 77
2020-05-28 14:00:00 21.5 6 Nordeste 13 Nordeste 0 -- -- 77
2020-05-28 13:00:00 21.9 7 Nordeste 12 Nordeste 0 -- -- 74
2020-05-28 12:00:00 21.1 6 Nordeste 14 Nordeste 0 -- -- 77
2020-05-28 11:00:00 20.7 9 Nordeste 14 Nordeste 0 -- -- 76
2020-05-28 10:00:00 20.5 6 Este 9 Sudeste 0 -- -- 81
2020-05-28 09:00:00 17.8 5 Este 9 Este 0 -- -- 91
2020-05-28 08:00:00 15.7 0 Calma 4 Sudoeste 0 -- -- 98
2020-05-28 07:00:00 13.6 3 Sudoeste 8 Sudoeste 0 -- -- 97
2020-05-28 06:00:00 13.7 3 Oeste 6 Sur 0 -- -- 97
2020-05-28 05:00:00 13.9 5 Sudoeste 6 Oeste 0 -- -- 97
2020-05-28 04:00:00 13.7 3 Oeste 8 Sudeste 0 -- -- 96
2020-05-28 03:00:00 13.7 5 Sudeste 6 Sudeste 0 -- -- 96
2020-05-28 02:00:00 14.3 5 Sudeste 8 Oeste 0 -- -- 95
2020-05-28 01:00:00 15 4 Oeste 13 Oeste 0 -- -- 96
2020-05-28 00:00:00 15.3 11 Oeste 15 Oeste 0 -- -- 95
2020-05-27 23:00:00 15.2 7 Oeste 11 Oeste 0 -- -- 94
2020-05-27 22:00:00 15.8 5 Noroeste 12 Norte 0 -- -- 92
2020-05-27 21:00:00 16.8 6 Noroeste 13 Noroeste 0 -- -- 89
2020-05-27 20:00:00 18 6 Norte 19 Noroeste 0 -- -- 86
2020-05-27 19:00:00 18.8 6 Norte 18 Nordeste 0 -- -- 85
2020-05-27 18:00:00 18.9 8 Norte 23 Norte 0 -- -- 86
2020-05-27 17:00:00 19.4 9 Nordeste 25 Nordeste 0 -- -- 84
2020-05-27 16:00:00 19.2 12 Nordeste 29 Nordeste 0 -- -- 85
2020-05-27 15:00:00 18.5 13 Nordeste 22 Nordeste 0 -- -- 84
2020-05-27 14:00:00 17.7 5 Nordeste 24 Nordeste 0 -- -- 87
2020-05-27 13:00:00 18.5 12 Nordeste 22 Nordeste 0 -- -- 82
2020-05-27 12:00:00 17.3 7 Noroeste 13 Noroeste 0 -- -- 85
2020-05-27 11:00:00 16.1 6 Norte 15 Norte 0 -- -- 90
2020-05-27 10:00:00 15.8 6 Oeste 11 Oeste 0 -- -- 95
2020-05-27 09:00:00 14.5 6 Noroeste 10 Noroeste 0 -- -- 97
2020-05-27 08:00:00 14.2 5 Oeste 10 Oeste 0 -- -- 97
2020-05-27 07:00:00 13.1 8 Oeste 10 Sudoeste 0 -- -- 97
2020-05-27 06:00:00 13.6 5 Sudoeste 15 Nordeste 0 -- -- 96
2020-05-27 05:00:00 14.9 6 Este 15 Nordeste 0 -- -- 97
2020-05-27 04:00:00 14.9 3 Nordeste 16 Nordeste 0 -- -- 97
2020-05-27 03:00:00 14.6 5 Nordeste 13 Nordeste 0 -- -- 96
2020-05-27 02:00:00 15.3 9 Nordeste 21 Este 0 -- -- 95
2020-05-27 01:00:00 15.6 13 Este 27 Este 0 -- -- 95
2020-05-27 00:00:00 15.8 14 Este 31 Este 0 -- -- 95
2020-05-26 23:00:00 15.9 19 Este 32 Nordeste 0 -- -- 94
2020-05-26 22:00:00 16 17 Este 30 Nordeste 0 -- -- 93
2020-05-26 21:00:00 16.4 19 Este 36 Nordeste 0 -- -- 92
2020-05-26 20:00:00 17.6 23 Nordeste 41 Este 0 -- -- 88
2020-05-26 19:00:00 17.6 19 Este 33 Este 0 -- -- 88
2020-05-26 18:00:00 17.9 13 Nordeste 35 Este 0 -- -- 88
2020-05-26 17:00:00 18 17 Nordeste 37 Nordeste 0 -- -- 88
2020-05-26 16:00:00 18.8 19 Nordeste 36 Nordeste 0 -- -- 86
2020-05-26 15:00:00 18.9 18 Nordeste 43 Este 0 -- -- 84
2020-05-26 14:00:00 18.5 17 Nordeste 28 Nordeste 0 -- -- 82
2020-05-26 13:00:00 18.1 15 Nordeste 31 Nordeste 0 -- -- 84
2020-05-26 12:00:00 18 17 Nordeste 27 Nordeste 0 -- -- 83
2020-05-26 11:00:00 17.5 12 Nordeste 19 Nordeste 0 -- -- 84
2020-05-26 10:00:00 17.2 13 Este 20 Nordeste 0 -- -- 85
2020-05-26 09:00:00 15.3 8 Nordeste 17 Este 0 -- -- 96
2020-05-26 08:00:00 14.7 6 Este 17 Este 0 -- -- 97
2020-05-26 07:00:00 14.7 6 Este 14 Este 0 -- -- 98
2020-05-26 06:00:00 14.7 10 Este 19 Este 0 -- -- 98
2020-05-26 05:00:00 14.4 6 Este 18 Este 0 -- -- 97
2020-05-26 04:00:00 14.3 10 Este 18 Este 0 -- -- 96
2020-05-26 03:00:00 14.3 5 Este 20 Nordeste 0 -- -- 96
2020-05-26 02:00:00 14.5 11 Este 21 Nordeste 0 -- -- 95
2020-05-26 01:00:00 14.8 15 Este 32 Este 0 -- -- 95
2020-05-26 00:00:00 15.3 15 Este 30 Este 0 -- -- 93
2020-05-25 23:00:00 15.6 14 Este 25 Este 0 -- -- 93
2020-05-25 22:00:00 15.4 13 Este 30 Nordeste 0 -- -- 93
2020-05-25 21:00:00 16.1 13 Nordeste 25 Nordeste 0 -- -- 90
2020-05-25 20:00:00 17.2 15 Nordeste 30 Nordeste 0 -- -- 86
2020-05-25 19:00:00 17.9 17 Nordeste 32 Nordeste 0 -- -- 84
2020-05-25 18:00:00 18.4 17 Nordeste 33 Nordeste 0 -- -- 83
2020-05-25 17:00:00 18.7 19 Nordeste 32 Nordeste 0 -- -- 82
2020-05-25 16:00:00 18.7 18 Nordeste 33 Nordeste 0 -- -- 83
2020-05-25 15:00:00 19 17 Nordeste 33 Este 0 -- -- 83
2020-05-25 14:00:00 18.1 14 Nordeste 27 Nordeste 0 -- -- 86
2020-05-25 13:00:00 18.2 17 Nordeste 31 Nordeste 0 -- -- 86
2020-05-25 12:00:00 18.2 16 Nordeste 28 Nordeste 0 -- -- 86
2020-05-25 11:00:00 17.9 15 Nordeste 29 Nordeste 0 -- -- 84
2020-05-25 10:00:00 17.2 13 Nordeste 23 Nordeste 0 -- -- 86
2020-05-25 09:00:00 16.2 8 Nordeste 16 Nordeste 0 -- -- 88
2020-05-25 08:00:00 14.3 4 Este 9 Este 0 -- -- 94
2020-05-25 07:00:00 13.9 2 Este 16 Nordeste 0 -- -- 93
2020-05-25 06:00:00 14.6 10 Nordeste 22 Nordeste 0 -- -- 94
2020-05-25 05:00:00 14.5 9 Nordeste 22 Este 0 -- -- 91
2020-05-25 04:00:00 14.4 8 Nordeste 14 Nordeste 0 -- -- 90
2020-05-25 03:00:00 13.9 4 Oeste 7 Oeste 0 -- -- 92
2020-05-25 02:00:00 13.3 4 Oeste 8 Oeste 0 -- -- 94
2020-05-25 01:00:00 12.5 4 Oeste 6 Oeste 0 -- -- 92
2020-05-25 00:00:00 13.2 4 Oeste 12 Este 0 -- -- 88
2020-05-24 23:00:00 14.4 9 Este 25 Este 0 -- -- 86
2020-05-24 22:00:00 14.9 19 Este 42 Este 0 -- -- 84
2020-05-24 21:00:00 15.6 26 Este 48 Este 0 -- -- 81
2020-05-24 20:00:00 16.4 28 Este 49 Nordeste 0 -- -- 79
2020-05-24 19:00:00 16.7 27 Este 50 Nordeste 0 -- -- 78
2020-05-24 18:00:00 17.4 28 Nordeste 49 Este 0 -- -- 76
2020-05-24 17:00:00 17.3 27 Este 46 Nordeste 0 -- -- 79
2020-05-24 16:00:00 17.9 31 Nordeste 54 Este 0 -- -- 75
2020-05-24 15:00:00 18.3 30 Nordeste 55 Este 0 -- -- 73
2020-05-24 14:00:00 17.9 30 Nordeste 50 Este 0 -- -- 73
2020-05-24 13:00:00 18.1 27 Nordeste 49 Este 0 -- -- 72
2020-05-24 12:00:00 17.4 30 Nordeste 47 Nordeste 0 -- -- 72
2020-05-24 11:00:00 17 24 Este 43 Nordeste 0 -- -- 70
2020-05-24 10:00:00 16.3 26 Este 39 Nordeste 0 -- -- 68
2020-05-24 09:00:00 15.5 18 Este 30 Nordeste 0 -- -- 64
2020-05-24 08:00:00 14.7 13 Este 27 Este 0 -- -- 71
2020-05-24 07:00:00 14.1 19 Este 35 Este 0 -- -- 80
2020-05-24 06:00:00 14.2 19 Este 31 Este 0 -- -- 79
2020-05-24 05:00:00 14.2 15 Este 36 Este 0 -- -- 78
2020-05-24 04:00:00 14.5 19 Este 35 Este 0 -- -- 83
2020-05-24 03:00:00 14.8 20 Este 37 Este 0 -- -- 83
2020-05-24 02:00:00 14.9 21 Este 36 Nordeste 0 -- -- 83
2020-05-24 01:00:00 15.2 21 Este 34 Este 0 -- -- 84
2020-05-24 00:00:00 15.1 19 Este 30 Nordeste 0 -- -- 85
2020-05-23 23:00:00 15.1 19 Este 32 Nordeste 0 -- -- 85
2020-05-23 22:00:00 15.5 19 Este 32 Nordeste 0 -- -- 84
2020-05-23 21:00:00 15.9 20 Nordeste 33 Este 0 -- -- 81
2020-05-23 20:00:00 16.1 16 Nordeste 32 Nordeste 0 -- -- 79
2020-05-23 19:00:00 16.3 16 Nordeste 28 Nordeste 0 -- -- 77
2020-05-23 18:00:00 16.8 17 Nordeste 29 Este 0 -- -- 77
2020-05-23 17:00:00 17.1 16 Nordeste 28 Nordeste 0 -- -- 74
2020-05-23 16:00:00 17.8 17 Nordeste 30 Nordeste 0 -- -- 71
2020-05-23 15:00:00 17.7 15 Nordeste 27 Nordeste 0 -- -- 74
2020-05-23 14:00:00 18.4 13 Nordeste 24 Nordeste 0 -- -- 74
2020-05-23 13:00:00 17.8 13 Nordeste 24 Nordeste 0 -- -- 74
2020-05-23 12:00:00 17.6 12 Nordeste 22 Nordeste 0 -- -- 78
2020-05-23 11:00:00 17.1 10 Norte 21 Nordeste 0 -- -- 80
2020-05-23 10:00:00 16.7 8 Nordeste 15 Nordeste 0 -- -- 83
2020-05-23 09:00:00 15.2 5 Noroeste 8 Noroeste 0 -- -- 92
2020-05-23 08:00:00 13.6 0 Calma 8 Sur 0 -- -- 95
2020-05-23 07:00:00 13.7 5 Sur 10 Este 0 -- -- 95
2020-05-23 06:00:00 13.8 4 Oeste 9 Noroeste 0 -- -- 95
2020-05-23 05:00:00 14.1 4 Noroeste 7 Noroeste 0 -- -- 95
2020-05-23 04:00:00 14 2 Sudoeste 8 Sur 0 -- -- 95
2020-05-23 03:00:00 14.3 3 Sur 8 Oeste 0.4 -- -- 95
2020-05-23 02:00:00 14.2 4 Oeste 8 Noroeste 0 -- -- 91
2020-05-23 01:00:00 14.2 5 Sur 9 Sur 0 -- -- 91
2020-05-23 00:00:00 14.4 6 Sur 9 Sur 0 -- -- 92
2020-05-22 23:00:00 14.4 8 Sur 9 Sur 0 -- -- 93
2020-05-22 22:00:00 14.6 6 Sur 14 Noroeste 0 -- -- 94
2020-05-22 21:00:00 15.2 6 Noroeste 12 Oeste 0 -- -- 90
2020-05-22 20:00:00 15.7 4 Noroeste 13 Norte 0 -- -- 89
2020-05-22 19:00:00 15.8 5 Noroeste 12 Noroeste 0 -- -- 89
2020-05-22 18:00:00 16.4 3 Noroeste 9 Noroeste 0 -- -- 88
2020-05-22 17:00:00 16.7 6 Norte 11 Noroeste 0 -- -- 86
2020-05-22 16:00:00 17.1 4 Norte 11 Noroeste 0 -- -- 85
2020-05-22 15:00:00 16.3 7 Noroeste 17 Noroeste 0 -- -- 93
2020-05-22 14:00:00 16.3 10 Noroeste 22 Noroeste 0 -- -- 93
2020-05-22 13:00:00 17.4 14 Noroeste 26 Oeste 0 -- -- 91
2020-05-22 12:00:00 21.3 15 Oeste 24 Noroeste 0 -- -- 73
2020-05-22 11:00:00 22.4 13 Sudoeste 32 Sudoeste 0 -- -- 64
2020-05-22 10:00:00 20.3 21 Sur 40 Sur 0 -- -- 68
2020-05-22 09:00:00 18.6 26 Sur 41 Sur 0 -- -- 74
2020-05-22 08:00:00 17.5 8 Sur 15 Sudoeste 0 -- -- 77
2020-05-22 07:00:00 15 8 Sudoeste 15 Sudoeste 0 -- -- 84
2020-05-22 06:00:00 15.4 8 Sudoeste 14 Sudoeste 0 -- -- 77
2020-05-22 05:00:00 15.7 0 Calma 17 Sudoeste 0 -- -- 70
2020-05-22 04:00:00 16.7 8 Oeste 34 Sur 0 -- -- 63
2020-05-22 03:00:00 18 17 Sur 28 Sudoeste 0 -- -- 53
2020-05-22 02:00:00 13.9 9 Sudoeste 15 Sur 0 -- -- 74
2020-05-22 01:00:00 13.8 6 Sur 13 Sudeste 0 -- -- 86
2020-05-22 00:00:00 14.3 6 Sudoeste 13 Oeste 0 -- -- 86
2020-05-21 23:00:00 15 7 Sur 10 Sudeste 0 -- -- 82
2020-05-21 22:00:00 16.9 4 Sudeste 8 Sudeste 0 -- -- 82
2020-05-21 21:00:00 18.2 4 Este 8 Nordeste 0 -- -- 78
2020-05-21 20:00:00 18.5 5 Este 9 Nordeste 0 -- -- 79
2020-05-21 19:00:00 18.1 4 Norte 13 Noroeste 0 -- -- 81
2020-05-21 18:00:00 19.2 6 Norte 14 Nordeste 0 -- -- 78
2020-05-21 17:00:00 19.1 8 Nordeste 15 Norte 0 -- -- 77
2020-05-21 16:00:00 18.1 10 Norte 17 Nordeste 0 -- -- 80
2020-05-21 15:00:00 18.5 10 Nordeste 18 Nordeste 0 -- -- 79
2020-05-21 14:00:00 18.5 13 Este 22 Nordeste 0 -- -- 76
2020-05-21 13:00:00 18.2 13 Nordeste 19 Nordeste 0 -- -- 76
2020-05-21 12:00:00 17.4 8 Nordeste 16 Este 0 -- -- 79
2020-05-21 11:00:00 16.7 5 Norte 12 Nordeste 0 -- -- 80
2020-05-21 10:00:00 14.9 3 Nordeste 13 Este 0 -- -- 85
2020-05-21 09:00:00 14.2 5 Sur 15 Este 0 -- -- 87
2020-05-21 08:00:00 14.1 8 Este 13 Sudeste 0 -- -- 89
2020-05-21 07:00:00 13.9 5 Sudeste 9 Sur 0 -- -- 90
2020-05-21 06:00:00 13.9 4 Sur 5 Sur 0 -- -- 90
2020-05-21 05:00:00 14 0 Calma 6 Este 0 -- -- 89
2020-05-21 04:00:00 14.1 4 Sudeste 8 Sudeste 0 -- -- 88
2020-05-21 03:00:00 14.1 0 Calma 6 Norte 0 -- -- 90
2020-05-21 02:00:00 14.2 2 Sur 9 Sudeste 0 -- -- 88
2020-05-21 01:00:00 14.2 2 Sur 6 Noroeste 0 -- -- 87
2020-05-21 00:00:00 14.4 3 Noroeste 8 Noroeste 0 -- -- 88
2020-05-20 23:00:00 14.4 0 Calma 8 Noroeste 0 -- -- 87
2020-05-20 22:00:00 14.4 3 Noroeste 13 Noroeste 0 -- -- 86
2020-05-20 21:00:00 14.6 8 Noroeste 14 Noroeste 0 -- -- 86
2020-05-20 20:00:00 15.2 7 Noroeste 17 Noroeste 0 -- -- 85
2020-05-20 19:00:00 15.3 9 Noroeste 22 Noroeste 0 -- -- 87
2020-05-20 18:00:00 15.9 12 Noroeste 22 Noroeste 0 -- -- 86
2020-05-20 17:00:00 15.9 14 Noroeste 27 Noroeste 0 -- -- 85
2020-05-20 16:00:00 16.4 13 Noroeste 23 Noroeste 0 -- -- 85
2020-05-20 15:00:00 17.1 10 Noroeste 21 Noroeste 0 -- -- 86
2020-05-20 14:00:00 17 10 Norte 25 Noroeste 0 -- -- 85
2020-05-20 13:00:00 17.3 9 Noroeste 16 Noroeste 0 -- -- 84
2020-05-20 12:00:00 16.9 10 Noroeste 15 Noroeste 0 -- -- 86
2020-05-20 11:00:00 18 5 Norte 14 Nordeste 0 -- -- 81
2020-05-20 10:00:00 19 8 Nordeste 10 Nordeste 0 -- -- 76
2020-05-20 09:00:00 16 5 Oeste 10 Oeste 0 -- -- 96
2020-05-20 08:00:00 13.6 3 Sur 8 Sur 0 -- -- 98
2020-05-20 07:00:00 12 3 Sudoeste 5 Oeste 0 -- -- 97
2020-05-20 06:00:00 11.9 2 Sudoeste 9 Sudeste 0 -- -- 97
2020-05-20 05:00:00 12.2 3 Sur 5 Sur 0 -- -- 97
2020-05-20 04:00:00 12.3 5 Sudeste 6 Sur 0 -- -- 96
2020-05-20 03:00:00 12.5 5 Sudeste 7 Sudeste 0 -- -- 96
2020-05-20 02:00:00 12.8 4 Sur 6 Sur 0 -- -- 95
2020-05-20 01:00:00 13.3 3 Sudoeste 7 Sudoeste 0 -- -- 94
2020-05-20 00:00:00 13.8 3 Sudoeste 5 Oeste 0 -- -- 93
2020-05-19 23:00:00 14.4 2 Sur 5 Oeste 0 -- -- 92
2020-05-19 22:00:00 15.5 3 Noroeste 7 Noroeste 0 -- -- 90
2020-05-19 21:00:00 16 4 Noroeste 11 Noroeste 0 -- -- 88
2020-05-19 20:00:00 16.9 5 Noroeste 15 Nordeste 0 -- -- 85
2020-05-19 19:00:00 17.8 6 Norte 20 Nordeste 0 -- -- 85
2020-05-19 18:00:00 18.6 12 Nordeste 21 Este 0 -- -- 81
2020-05-19 17:00:00 18.4 14 Nordeste 27 Nordeste 0 -- -- 83
2020-05-19 16:00:00 18.4 15 Nordeste 28 Este 0 -- -- 83
2020-05-19 15:00:00 18 18 Nordeste 28 Nordeste 0 -- -- 83
2020-05-19 14:00:00 18.5 14 Nordeste 22 Este 0 -- -- 81
2020-05-19 13:00:00 17.5 8 Nordeste 16 Nordeste 0 -- -- 82
2020-05-19 12:00:00 17.1 10 Nordeste 16 Norte 0 -- -- 79
2020-05-19 11:00:00 17.7 5 Este 14 Este 0 -- -- 76
2020-05-19 10:00:00 17.3 5 Este 10 Nordeste 0 -- -- 76
2020-05-19 09:00:00 15.6 6 Sudeste 9 Sudeste 0 -- -- 85
2020-05-19 08:00:00 13.5 8 Sur 10 Sur 0 -- -- 93
2020-05-19 07:00:00 13.6 3 Sur 9 Oeste 0 -- -- 94
2020-05-19 06:00:00 13.8 5 Oeste 8 Oeste 0 -- -- 95
2020-05-19 05:00:00 13.9 4 Oeste 9 Sudoeste 0 -- -- 95
2020-05-19 04:00:00 14.1 5 Oeste 9 Oeste 0 -- -- 95
2020-05-19 03:00:00 14.2 5 Oeste 9 Oeste 0 -- -- 96
2020-05-19 02:00:00 14.3 3 Oeste 5 Oeste 0 -- -- 95
2020-05-19 01:00:00 14.3 0 Calma 5 Nordeste 0 -- -- 93
2020-05-19 00:00:00 14.8 4 Este 15 Nordeste 0 -- -- 91
2020-05-18 23:00:00 14.8 7 Nordeste 15 Este 0 -- -- 94
2020-05-18 22:00:00 15 4 Nordeste 12 Nordeste 0 -- -- 93
2020-05-18 21:00:00 15.2 4 Nordeste 10 Norte 0 -- -- 92
2020-05-18 20:00:00 15.5 5 Norte 12 Noroeste 0 -- -- 91
2020-05-18 19:00:00 15.9 5 Norte 17 Norte 0 -- -- 88
2020-05-18 18:00:00 17.3 7 Norte 23 Nordeste 0 -- -- 85
2020-05-18 17:00:00 17.1 13 Nordeste 23 Nordeste 0 -- -- 83
2020-05-18 16:00:00 18.1 15 Nordeste 26 Nordeste 0 -- -- 80
2020-05-18 15:00:00 18 16 Nordeste 26 Nordeste 0 -- -- 80
2020-05-18 14:00:00 17.5 13 Nordeste 20 Nordeste 0 -- -- 79
2020-05-18 13:00:00 17.2 10 Nordeste 17 Este 0 -- -- 74
2020-05-18 12:00:00 16.6 10 Nordeste 15 Nordeste 0 -- -- 76
2020-05-18 11:00:00 15.8 6 Norte 10 Norte 0 -- -- 80
2020-05-18 10:00:00 14.5 3 Noroeste 7 Noroeste 0 -- -- 86
2020-05-18 09:00:00 13.5 3 Nordeste 8 Sudeste 0 -- -- 90
2020-05-18 08:00:00 10.4 6 Sur 13 Sur 0 -- -- 98
2020-05-18 07:00:00 8.8 11 Sudeste 13 Sur 0 -- -- 96
2020-05-18 06:00:00 8.7 7 Sur 12 Sur 0 -- -- 97
2020-05-18 05:00:00 9 9 Sur 12 Sur 0 -- -- 97
2020-05-18 04:00:00 9.2 7 Sur 12 Sur 0 -- -- 95
2020-05-18 03:00:00 9.6 6 Sur 12 Sudeste 0 -- -- 95
2020-05-18 02:00:00 10 8 Sur 12 Sudeste 0 -- -- 95
2020-05-18 01:00:00 10.3 5 Sur 7 Sur 0 -- -- 93
2020-05-18 00:00:00 11.2 4 Sur 9 Oeste 0 -- -- 91
2020-05-17 23:00:00 12.1 3 Sudoeste 6 Sudoeste 0 -- -- 89
2020-05-17 22:00:00 13.3 3 Noroeste 8 Norte 0 -- -- 84
2020-05-17 21:00:00 14.7 6 Nordeste 16 Nordeste 0 -- -- 80
2020-05-17 20:00:00 15.9 7 Nordeste 30 Este 0 -- -- 76
2020-05-17 19:00:00 16.4 14 Nordeste 31 Nordeste 0 -- -- 76
2020-05-17 18:00:00 16.7 17 Nordeste 33 Este 0 -- -- 73
2020-05-17 17:00:00 16.8 20 Nordeste 34 Este 0 -- -- 72
2020-05-17 16:00:00 17.3 19 Nordeste 30 Este 0 -- -- 73
2020-05-17 15:00:00 17.2 19 Nordeste 33 Este 0 -- -- 75
2020-05-17 14:00:00 17.3 17 Nordeste 30 Nordeste 0 -- -- 77
2020-05-17 13:00:00 16.7 15 Nordeste 27 Este 0 -- -- 76
2020-05-17 12:00:00 15.9 14 Nordeste 21 Nordeste 0 -- -- 77
2020-05-17 11:00:00 15 8 Nordeste 12 Nordeste 0 -- -- 77
2020-05-17 10:00:00 14.9 6 Nordeste 11 Nordeste 0 -- -- 80
2020-05-17 09:00:00 12.9 4 Oeste 6 Oeste 0 -- -- 89
2020-05-17 08:00:00 9.5 5 Sur 10 Sur 0 -- -- 96
2020-05-17 07:00:00 7.9 5 Sur 9 Sur 0 -- -- 94
2020-05-17 06:00:00 8.1 4 Sudoeste 9 Sudoeste 0 -- -- 93
2020-05-17 05:00:00 8.7 6 Sur 10 Sudeste 0 -- -- 92
2020-05-17 04:00:00 9.7 7 Sur 11 Sudeste 0 -- -- 93
2020-05-17 03:00:00 11.1 3 Sudeste 12 Este 0 -- -- 92
2020-05-17 02:00:00 12.2 7 Sudeste 12 Sudeste 0 -- -- 93
2020-05-17 01:00:00 13.2 6 Este 19 Este 0 -- -- 94
2020-05-17 00:00:00 13.6 9 Este 21 Este 0 -- -- 94
2020-05-16 23:00:00 13.2 10 Este 19 Nordeste 0 -- -- 94
2020-05-16 22:00:00 13.6 13 Este 25 Nordeste 0 -- -- 92
2020-05-16 21:00:00 14.4 17 Este 30 Este 0 -- -- 90
2020-05-16 20:00:00 15 17 Nordeste 34 Este 0 -- -- 87
2020-05-16 19:00:00 15.8 19 Este 32 Nordeste 0 -- -- 84
2020-05-16 18:00:00 15.8 18 Nordeste 34 Nordeste 0 -- -- 84
2020-05-16 17:00:00 16.3 23 Nordeste 35 Nordeste 0 -- -- 82
2020-05-16 16:00:00 16.2 20 Nordeste 35 Nordeste 0 -- -- 82
2020-05-16 15:00:00 16.9 17 Nordeste 30 Nordeste 0 -- -- 80
2020-05-16 14:00:00 16.2 18 Nordeste 31 Nordeste 0 -- -- 77
2020-05-16 13:00:00 16.1 19 Nordeste 32 Nordeste 0 -- -- 75
2020-05-16 12:00:00 15.7 21 Nordeste 32 Este 0 -- -- 72
2020-05-16 11:00:00 15.5 17 Nordeste 28 Este 0 -- -- 71
2020-05-16 10:00:00 14.5 14 Nordeste 24 Nordeste 0 -- -- 72
2020-05-16 09:00:00 13.2 13 Este 19 Este 0 -- -- 77
2020-05-16 08:00:00 11 6 Este 14 Sudeste 0 -- -- 86
2020-05-16 07:00:00 10.2 8 Sudeste 11 Sudeste 0 -- -- 86
2020-05-16 06:00:00 10.4 6 Sudeste 11 Este 0 -- -- 85
2020-05-16 05:00:00 10.9 7 Sudeste 15 Este 0 -- -- 84
2020-05-16 04:00:00 12.1 14 Este 32 Este 0 -- -- 77
2020-05-16 03:00:00 12.2 15 Este 31 Nordeste 0 -- -- 79
2020-05-16 02:00:00 12.4 19 Este 30 Este 0 -- -- 80
2020-05-16 01:00:00 12.7 18 Este 33 Nordeste 0 -- -- 81
2020-05-16 00:00:00 12.8 19 Este 32 Nordeste 0 -- -- 80
2020-05-15 23:00:00 13 19 Este 35 Nordeste 0 -- -- 82
2020-05-15 22:00:00 12.9 19 Este 34 Nordeste 0 -- -- 82
2020-05-15 21:00:00 13.2 20 Este 35 Este 0 -- -- 81
2020-05-15 20:00:00 13.7 21 Nordeste 37 Este 0 -- -- 80
2020-05-15 19:00:00 13.8 22 Nordeste 37 Este 0 -- -- 80
2020-05-15 18:00:00 14.1 18 Nordeste 37 Nordeste 0 -- -- 80
2020-05-15 17:00:00 14.8 20 Nordeste 36 Nordeste 0 -- -- 76
2020-05-15 16:00:00 15.4 21 Nordeste 35 Nordeste 0 -- -- 76
2020-05-15 15:00:00 15.7 20 Nordeste 34 Nordeste 0 -- -- 77
2020-05-15 14:00:00 15.4 21 Nordeste 34 Nordeste 0 -- -- 78
2020-05-15 13:00:00 14.7 18 Nordeste 36 Nordeste 0 -- -- 80
2020-05-15 12:00:00 14 19 Nordeste 35 Nordeste 0 -- -- 84
2020-05-15 11:00:00 13.6 17 Este 24 Este 0 -- -- 87
2020-05-15 10:00:00 12.5 13 Este 22 Este 0.2 -- -- 91
2020-05-15 09:00:00 12.1 12 Este 22 Este 0 -- -- 94
2020-05-15 08:00:00 12.1 7 Este 15 Nordeste 0 -- -- 96
2020-05-15 07:00:00 12 5 Este 9 Este 0 -- -- 97
2020-05-15 06:00:00 11.8 5 Sudeste 8 Este 0 -- -- 97
2020-05-15 05:00:00 11.8 6 Este 22 Este 0 -- -- 97
2020-05-15 04:00:00 12 12 Este 28 Este 0.2 -- -- 95
2020-05-15 03:00:00 12.1 16 Nordeste 26 Este 0.2 -- -- 94
2020-05-15 02:00:00 12.3 12 Nordeste 26 Este 0 -- -- 93
2020-05-15 01:00:00 12.4 15 Nordeste 27 Nordeste 0 -- -- 91
2020-05-15 00:00:00 12.5 16 Nordeste 28 Nordeste 0 -- -- 91
2020-05-14 23:00:00 12.4 15 Nordeste 33 Nordeste 0 -- -- 90
2020-05-14 22:00:00 12.1 18 Este 31 Nordeste 0 -- -- 93
2020-05-14 21:00:00 11.9 18 Este 35 Nordeste 0.2 -- -- 95
2020-05-14 20:00:00 12.2 19 Nordeste 35 Este 0 -- -- 93
2020-05-14 19:00:00 12.8 18 Nordeste 40 Este 0 -- -- 90
2020-05-14 18:00:00 12.7 20 Nordeste 35 Nordeste 0 -- -- 90
2020-05-14 17:00:00 12.6 23 Este 35 Nordeste 0.2 -- -- 93
2020-05-14 16:00:00 12.7 18 Este 42 Nordeste 0 -- -- 94
2020-05-14 15:00:00 12.6 21 Este 40 Nordeste 0.2 -- -- 94
2020-05-14 14:00:00 12.6 23 Nordeste 40 Este 0 -- -- 94
2020-05-14 13:00:00 13.2 23 Nordeste 42 Nordeste 0 -- -- 90
2020-05-14 12:00:00 13.2 19 Este 41 Este 0 -- -- 90
2020-05-14 11:00:00 12.5 20 Este 46 Este 0.2 -- -- 94
2020-05-14 10:00:00 12.5 23 Este 42 Este 0 -- -- 94
2020-05-14 09:00:00 12.8 24 Este 44 Nordeste 0 -- -- 93
2020-05-14 08:00:00 13 18 Este 36 Este 0 -- -- 93
2020-05-14 07:00:00 12.9 21 Este 37 Este 0 -- -- 90
2020-05-14 06:00:00 12.8 19 Este 38 Este 0 -- -- 91
2020-05-14 05:00:00 12.9 22 Este 42 Nordeste 0 -- -- 90
2020-05-14 04:00:00 12.9 22 Este 42 Este 0 -- -- 93
2020-05-14 03:00:00 13.1 23 Este 44 Nordeste 0 -- -- 94
2020-05-14 02:00:00 13.7 24 Este 42 Este 0 -- -- 91
2020-05-14 01:00:00 13.8 24 Este 39 Este 0 -- -- 91
2020-05-14 00:00:00 13.9 20 Este 36 Este 0 -- -- 90
2020-05-13 23:00:00 13.9 18 Este 36 Este 0 -- -- 90
2020-05-13 22:00:00 13.7 18 Este 40 Nordeste 0 -- -- 90
2020-05-13 21:00:00 13.9 23 Este 38 Nordeste 0 -- -- 90
2020-05-13 20:00:00 14.4 23 Nordeste 38 Este 0 -- -- 87
2020-05-13 19:00:00 13.9 22 Este 35 Nordeste 0 -- -- 89
2020-05-13 18:00:00 14.1 19 Nordeste 33 Nordeste 0 -- -- 89
2020-05-13 17:00:00 15.3 18 Nordeste 31 Nordeste 0 -- -- 83
2020-05-13 16:00:00 15.6 18 Nordeste 28 Nordeste 0 -- -- 80
2020-05-13 15:00:00 15.2 17 Nordeste 26 Nordeste 0 -- -- 81
2020-05-13 14:00:00 15.5 15 Nordeste 25 Este 0 -- -- 79
2020-05-13 13:00:00 14.9 14 Este 24 Nordeste 0 -- -- 81
2020-05-13 12:00:00 14.5 12 Nordeste 21 Nordeste 0 -- -- 83
2020-05-13 11:00:00 13.7 9 Nordeste 15 Este 0 -- -- 89
2020-05-13 10:00:00 13 9 Este 16 Este 0 -- -- 90
2020-05-13 09:00:00 12.4 8 Este 18 Este 0 -- -- 93
2020-05-13 08:00:00 12 10 Este 17 Este 0 -- -- 92
2020-05-13 07:00:00 11.8 3 Sudeste 5 Sur 0 -- -- 92
2020-05-13 06:00:00 11.9 4 Este 15 Este 0 -- -- 90
2020-05-13 05:00:00 12 9 Este 13 Este 0 -- -- 89
2020-05-13 04:00:00 12.1 7 Este 15 Este 0 -- -- 90
2020-05-13 03:00:00 12 10 Este 16 Este 0 -- -- 89
2020-05-13 02:00:00 12.1 9 Este 28 Este 0 -- -- 89
2020-05-13 01:00:00 12.3 15 Este 29 Este 0 -- -- 89
2020-05-13 00:00:00 12.3 14 Este 30 Este 0 -- -- 88
2020-05-12 23:00:00 12.4 15 Este 31 Este 0 -- -- 88
2020-05-12 22:00:00 12.4 18 Este 36 Este 0 -- -- 87
2020-05-12 21:00:00 12.5 23 Este 39 Nordeste 0 -- -- 86
2020-05-12 20:00:00 12.8 24 Este 44 Nordeste 0 -- -- 85
2020-05-12 19:00:00 12.8 22 Este 36 Este 0.4 -- -- 87
2020-05-12 18:00:00 12.5 21 Este 39 Nordeste 0.6 -- -- 87
2020-05-12 17:00:00 13.3 28 Este 43 Nordeste 0 -- -- 80
2020-05-12 16:00:00 14 27 Este 42 Este 0 -- -- 78
2020-05-12 15:00:00 14 22 Este 39 Este 0 -- -- 80
2020-05-12 14:00:00 14.2 24 Este 39 Nordeste 0 -- -- 82
2020-05-12 13:00:00 13.9 28 Este 46 Este 0 -- -- 84
2020-05-12 12:00:00 14.2 26 Este 39 Nordeste 0 -- -- 83
2020-05-12 11:00:00 13.3 21 Este 42 Este 0 -- -- 88
2020-05-12 10:00:00 13.1 24 Este 36 Este 0 -- -- 88
2020-05-12 09:00:00 12.9 18 Este 39 Este 0 -- -- 90
2020-05-12 08:00:00 12.9 20 Este 33 Este 0 -- -- 91
2020-05-12 07:00:00 12.8 15 Este 27 Este 0 -- -- 92
2020-05-12 06:00:00 12.9 14 Este 32 Este 0 -- -- 93
2020-05-12 05:00:00 12.9 17 Este 32 Este 0 -- -- 93
2020-05-12 04:00:00 12.9 22 Este 38 Este 0 -- -- 94
2020-05-12 03:00:00 13.3 23 Este 37 Este 0 -- -- 95
2020-05-12 02:00:00 13.2 22 Este 35 Nordeste 0 -- -- 95
2020-05-12 01:00:00 13.2 19 Este 39 Este 0 -- -- 96
2020-05-12 00:00:00 13.3 19 Nordeste 36 Este 0 -- -- 95
2020-05-11 23:00:00 13.4 23 Este 37 Este 0 -- -- 93
2020-05-11 22:00:00 13.2 22 Este 39 Nordeste 0 -- -- 96
2020-05-11 21:00:00 13.4 19 Este 34 Este 0 -- -- 96
2020-05-11 20:00:00 13.9 19 Este 35 Este 0 -- -- 94
2020-05-11 19:00:00 14.2 23 Este 39 Este 0 -- -- 93
2020-05-11 18:00:00 15.1 18 Nordeste 33 Este 0 -- -- 92
2020-05-11 17:00:00 16.4 15 Nordeste 24 Nordeste 0 -- -- 87
2020-05-11 16:00:00 17.5 11 Norte 22 Norte 0 -- -- 80
2020-05-11 15:00:00 17.8 13 Norte 22 Norte 0 -- -- 77
2020-05-11 14:00:00 18.2 6 Norte 12 Nordeste 0 -- -- 63
2020-05-11 13:00:00 17.8 6 Nordeste 13 Norte 0 -- -- 73
2020-05-11 12:00:00 16.6 6 Nordeste 13 Noroeste 0 -- -- 79
2020-05-11 11:00:00 15.3 6 Noroeste 12 Noroeste 0 -- -- 86
2020-05-11 10:00:00 14.5 4 Oeste 8 Oeste 0 -- -- 91
2020-05-11 09:00:00 12.2 2 Sudeste 6 Sur 0 -- -- 94
2020-05-11 08:00:00 11 2 Sur 7 Sur 0 -- -- 93
2020-05-11 07:00:00 10.7 2 Noroeste 10 Sudeste 0 -- -- 92
2020-05-11 06:00:00 10.8 9 Sudeste 13 Sudeste 0 -- -- 93
2020-05-11 05:00:00 10.4 2 Sur 12 Sudeste 0 -- -- 92
2020-05-11 04:00:00 11.1 9 Sur 13 Sudeste 0 -- -- 92
2020-05-11 03:00:00 11.3 7 Sur 9 Sur 0 -- -- 91
2020-05-11 02:00:00 12.8 5 Oeste 10 Sur 0 -- -- 86
2020-05-11 01:00:00 13.7 7 Sur 15 Sur 0 -- -- 89
2020-05-11 00:00:00 13.8 7 Sur 10 Sur 0 -- -- 94
2020-05-10 23:00:00 13.8 4 Sur 5 Sur 0 -- -- 93
2020-05-10 22:00:00 14.4 4 Oeste 7 Oeste 0 -- -- 91
2020-05-10 21:00:00 14.9 3 Noroeste 10 Noroeste 0 -- -- 90
2020-05-10 20:00:00 15.3 5 Norte 13 Noroeste 0 -- -- 87
2020-05-10 19:00:00 15.5 9 Noroeste 15 Noroeste 0 -- -- 86
2020-05-10 18:00:00 16.1 10 Noroeste 19 Noroeste 0 -- -- 84
2020-05-10 17:00:00 17.5 8 Norte 13 Norte 0 -- -- 75
2020-05-10 16:00:00 16.9 9 Nordeste 13 Norte 0 -- -- 76
2020-05-10 15:00:00 16.4 7 Noroeste 15 Norte 0 -- -- 78
2020-05-10 14:00:00 16.5 6 Noroeste 13 Noroeste 0 -- -- 80
2020-05-10 13:00:00 16.2 4 Norte 12 Norte 0 -- -- 83
2020-05-10 12:00:00 16.1 3 Este 12 Sur 0 -- -- 83
2020-05-10 11:00:00 15.1 7 Sudoeste 13 Sudoeste 0 -- -- 88
2020-05-10 10:00:00 13.4 6 Sudoeste 13 Sudoeste 0.2 -- -- 96
2020-05-10 09:00:00 12.9 3 Sur 5 Este 1.4 -- -- 97
2020-05-10 08:00:00 12.9 4 Este 7 Sudeste 0 -- -- 97
2020-05-10 07:00:00 13 4 Nordeste 15 Sudoeste 0 -- -- 97
2020-05-10 06:00:00 13.4 5 Sudoeste 13 Sudoeste 0.4 -- -- 98
2020-05-10 05:00:00 13.1 3 Sudoeste 9 Sudeste 0 -- -- 98
2020-05-10 04:00:00 13.3 4 Sudeste 8 Oeste 0 -- -- 98
2020-05-10 03:00:00 13.2 6 Sudoeste 10 Oeste 0 -- -- 98
2020-05-10 02:00:00 13.5 7 Sudoeste 9 Oeste 0 -- -- 98
2020-05-10 01:00:00 13.8 3 Oeste 8 Oeste 0 -- -- 98
2020-05-10 00:00:00 13.4 2 Sur 6 Sudoeste 0 -- -- 97
2020-05-09 23:00:00 13.8 6 Sur 9 Sur 0 -- -- 97
2020-05-09 22:00:00 14.5 3 Sudeste 6 Sur 0 -- -- 96
2020-05-09 21:00:00 15.1 3 Noroeste 10 Noroeste 0 -- -- 96
2020-05-09 20:00:00 14.7 4 Sudeste 14 Sur 0.2 -- -- 95
2020-05-09 19:00:00 14 15 Sudeste 24 Sudeste 5.2 -- -- 97
2020-05-09 18:00:00 14.6 8 Este 27 Este 7 -- -- 98
2020-05-09 17:00:00 14.8 13 Este 27 Nordeste 0 -- -- 98
2020-05-09 16:00:00 15 17 Este 28 Este 0 -- -- 97
2020-05-09 15:00:00 15.3 15 Este 24 Nordeste 0 -- -- 95
2020-05-09 14:00:00 15.4 15 Nordeste 25 Este 0 -- -- 96
2020-05-09 13:00:00 15.2 13 Nordeste 21 Este 0 -- -- 97
2020-05-09 12:00:00 15 13 Este 20 Este 0 -- -- 99
2020-05-09 11:00:00 14.6 9 Este 14 Este 0.2 -- -- 100
2020-05-09 10:00:00 14.4 5 Nordeste 9 Este 0.6 -- -- 99
2020-05-09 09:00:00 14.2 3 Nordeste 8 Norte 0.2 -- -- 99
2020-05-09 08:00:00 14.1 3 Nordeste 8 Norte 0.6 -- -- 99
2020-05-09 07:00:00 14.1 3 Nordeste 9 Norte 0.4 -- -- 99
2020-05-09 06:00:00 14.2 4 Norte 11 Norte 0.2 -- -- 99
2020-05-09 05:00:00 14.2 4 Nordeste 10 Nordeste 0 -- -- 98
2020-05-09 04:00:00 14.2 5 Nordeste 13 Nordeste 0 -- -- 98
2020-05-09 03:00:00 14.4 7 Oeste 12 Oeste 0 -- -- 98
2020-05-09 02:00:00 14.2 8 Oeste 10 Oeste 0 -- -- 98
2020-05-09 01:00:00 14.1 5 Sur 13 Oeste 0 -- -- 98
2020-05-09 00:00:00 14.4 6 Sudoeste 13 Este 0.4 -- -- 97
2020-05-08 23:00:00 14.5 6 Este 14 Este 0 -- -- 97
2020-05-08 22:00:00 14.4 0 Calma 5 Oeste 0.2 -- -- 96
2020-05-08 21:00:00 14.5 4 Noroeste 9 Este 0.4 -- -- 96
2020-05-08 20:00:00 14.5 2 Norte 10 Noroeste 0.2 -- -- 96
2020-05-08 19:00:00 14.6 8 Oeste 14 Oeste 0 -- -- 95
2020-05-08 18:00:00 14.7 6 Noroeste 13 Noroeste 0 -- -- 94
2020-05-08 17:00:00 15.5 6 Nordeste 14 Norte 0 -- -- 90
2020-05-08 16:00:00 15.8 6 Noroeste 13 Nordeste 0 -- -- 90
2020-05-08 15:00:00 16.1 5 Norte 13 Nordeste 0 -- -- 88
2020-05-08 14:00:00 15.6 9 Nordeste 14 Nordeste 0 -- -- 88
2020-05-08 13:00:00 15.4 9 Nordeste 15 Nordeste 0 -- -- 90
2020-05-08 12:00:00 15.4 8 Nordeste 12 Nordeste 0 -- -- 90
2020-05-08 11:00:00 14.7 5 Noroeste 13 Noroeste 0 -- -- 93
2020-05-08 10:00:00 14.5 8 Noroeste 15 Noroeste 0 -- -- 95
2020-05-08 09:00:00 14.3 2 Noroeste 10 Oeste 0 -- -- 95
2020-05-08 08:00:00 14 6 Oeste 11 Oeste 0 -- -- 96
2020-05-08 07:00:00 14 0 Calma 10 Oeste 0 -- -- 95
2020-05-08 06:00:00 14.1 7 Noroeste 10 Noroeste 0 -- -- 95
2020-05-08 05:00:00 14.4 5 Noroeste 9 Noroeste 0 -- -- 94
2020-05-08 04:00:00 14.5 4 Sudeste 12 Sudoeste 0 -- -- 94
2020-05-08 03:00:00 14.5 7 Oeste 10 Sudoeste 0 -- -- 92
2020-05-08 02:00:00 14.6 2 Noroeste 5 Noroeste 0 -- -- 92
2020-05-08 01:00:00 14.7 3 Oeste 6 Oeste 0 -- -- 91
2020-05-08 00:00:00 14.8 3 Noroeste 7 Este 0 -- -- 91
2020-05-07 23:00:00 14.7 3 Nordeste 5 Sur 0 -- -- 92
2020-05-07 22:00:00 15 4 Nordeste 10 Norte 0 -- -- 89
2020-05-07 21:00:00 15.7 3 Este 12 Nordeste 0 -- -- 86
2020-05-07 20:00:00 15.7 7 Nordeste 14 Nordeste 0 -- -- 86
2020-05-07 19:00:00 16.3 6 Norte 16 Nordeste 0 -- -- 85
2020-05-07 18:00:00 17.4 8 Norte 16 Nordeste 0 -- -- 83
2020-05-07 17:00:00 17.3 7 Norte 15 Nordeste 0 -- -- 85
2020-05-07 16:00:00 17.5 9 Norte 18 Norte 0 -- -- 81
2020-05-07 15:00:00 17.9 8 Norte 17 Norte 0 -- -- 80
2020-05-07 14:00:00 17.9 8 Norte 17 Norte 0 -- -- 80
2020-05-07 13:00:00 17.7 7 Norte 14 Norte 0 -- -- 79
2020-05-07 12:00:00 17.1 8 Nordeste 13 Nordeste 0 -- -- 83
2020-05-07 11:00:00 16.8 5 Norte 10 Norte 0 -- -- 84
2020-05-07 10:00:00 15.9 3 Nordeste 5 Nordeste 0 -- -- 85
2020-05-07 09:00:00 14.1 3 Sur 6 Sudeste 0 -- -- 93
2020-05-07 08:00:00 12.2 6 Sur 9 Sudeste 0 -- -- 93
2020-05-07 07:00:00 12.2 9 Sur 10 Sur 0 -- -- 94
2020-05-07 06:00:00 12.3 5 Sur 8 Sudeste 0 -- -- 95
2020-05-07 05:00:00 12.4 3 Sur 6 Sudoeste 0 -- -- 95
2020-05-07 04:00:00 12.6 3 Sudoeste 8 Sur 0 -- -- 94
2020-05-07 03:00:00 12.7 2 Oeste 8 Oeste 0 -- -- 94
2020-05-07 02:00:00 13.1 6 Oeste 10 Oeste 0 -- -- 93
2020-05-07 01:00:00 13.5 4 Sudeste 12 Sur 0 -- -- 94
2020-05-07 00:00:00 13.1 4 Sur 8 Sur 0 -- -- 91
2020-05-06 23:00:00 14.1 0 Calma 4 Sur 0 -- -- 89
2020-05-06 22:00:00 14.8 3 Sur 8 Oeste 0 -- -- 84
2020-05-06 21:00:00 16.2 3 Noroeste 13 Este 0 -- -- 82
2020-05-06 20:00:00 17.9 9 Este 14 Nordeste 0 -- -- 70
2020-05-06 19:00:00 18.3 9 Nordeste 19 Norte 0 -- -- 74
2020-05-06 18:00:00 18.4 9 Nordeste 27 Nordeste 0 -- -- 75
2020-05-06 17:00:00 19.3 17 Nordeste 30 Este 0 -- -- 66
2020-05-06 16:00:00 20.3 17 Nordeste 29 Nordeste 0 -- -- 61
2020-05-06 15:00:00 20 17 Nordeste 27 Nordeste 0 -- -- 61
2020-05-06 14:00:00 20.3 14 Nordeste 22 Nordeste 0 -- -- 62
2020-05-06 13:00:00 19.7 10 Nordeste 16 Este 0 -- -- 63
2020-05-06 12:00:00 19.6 10 Nordeste 18 Nordeste 0 -- -- 64
2020-05-06 11:00:00 20.2 7 Norte 18 Sur 0 -- -- 59
2020-05-06 10:00:00 18.9 7 Nordeste 10 Nordeste 0 -- -- 62
2020-05-06 09:00:00 16 8 Nordeste 22 Sur 0 -- -- 70
2020-05-06 08:00:00 14.8 16 Sur 23 Sur 0 -- -- 72
2020-05-06 07:00:00 14.4 16 Sur 21 Sur 0 -- -- 73
2020-05-06 06:00:00 15.8 13 Sur 21 Sudoeste 0 -- -- 68
2020-05-06 05:00:00 15.8 13 Sudoeste 21 Sudoeste 0 -- -- 70
2020-05-06 04:00:00 14.5 9 Sur 15 Sudoeste 0 -- -- 75
2020-05-06 03:00:00 12.5 8 Sur 11 Sur 0 -- -- 86
2020-05-06 02:00:00 13.4 6 Sur 12 Sur 0 -- -- 86
2020-05-06 01:00:00 13.6 9 Sur 12 Sur 0 -- -- 88
2020-05-06 00:00:00 13.7 4 Sudeste 8 Sudeste 0 -- -- 89
2020-05-05 23:00:00 14.1 6 Sudoeste 11 Oeste 0 -- -- 89
2020-05-05 22:00:00 15.1 9 Oeste 28 Oeste 0 -- -- 88
2020-05-05 21:00:00 15.9 17 Oeste 33 Oeste 0 -- -- 85
2020-05-05 20:00:00 19.6 7 Norte 21 Sudoeste 0 -- -- 70
2020-05-05 19:00:00 21.5 15 Sudoeste 35 Sur 0 -- -- 50
2020-05-05 18:00:00 21.6 12 Este 19 Este 0 -- -- 60
2020-05-05 17:00:00 21.4 13 Nordeste 36 Oeste 0 -- -- 59
2020-05-05 16:00:00 22.4 13 Sudoeste 30 Sur 0 -- -- 47
2020-05-05 15:00:00 22.7 17 Sur 31 Sur 0 -- -- 47
2020-05-05 14:00:00 22.6 14 Sur 33 Sudoeste 0 -- -- 51
2020-05-05 13:00:00 21.7 14 Sudoeste 33 Sudoeste 0 -- -- 48
2020-05-05 12:00:00 21.4 18 Sur 32 Sur 0 -- -- 46
2020-05-05 11:00:00 19.4 8 Sudeste 14 Sudeste 0 -- -- 55
2020-05-05 10:00:00 17.8 6 Sudeste 14 Sur 0 -- -- 59
2020-05-05 09:00:00 15.9 4 Sur 13 Sur 0 -- -- 69
2020-05-05 08:00:00 13.4 7 Sudeste 13 Sur 0 -- -- 77
2020-05-05 07:00:00 14.8 8 Sudoeste 21 Sudoeste 0 -- -- 69
2020-05-05 06:00:00 15.2 12 Sudoeste 26 Sur 0 -- -- 69
2020-05-05 05:00:00 15.5 8 Sur 22 Sudoeste 0 -- -- 67
2020-05-05 04:00:00 16.5 10 Sudoeste 26 Sur 0 -- -- 65
2020-05-05 03:00:00 17 6 Sur 43 Sur 0 -- -- 64
2020-05-05 02:00:00 17.5 18 Sudoeste 40 Sur 0 -- -- 62
2020-05-05 01:00:00 17.5 11 Sur 43 Sudeste 0 -- -- 61
2020-05-05 00:00:00 17.8 13 Sudoeste 45 Sudoeste 0 -- -- 60
2020-05-04 23:00:00 18.2 16 Sudoeste 44 Sudoeste 0 -- -- 59
2020-05-04 22:00:00 18.7 17 Sur 41 Sudoeste 0 -- -- 59
2020-05-04 21:00:00 19 17 Sudoeste 35 Sudoeste 0 -- -- 61
2020-05-04 20:00:00 19.6 13 Sudoeste 44 Oeste 0.2 -- -- 66
2020-05-04 19:00:00 18.5 13 Sudoeste 34 Sur 0 -- -- 77
2020-05-04 18:00:00 16 18 Sudoeste 98 Sur 18.8 -- -- 86
2020-05-04 17:00:00 16.5 18 Oeste 40 Oeste 0 -- -- 89
2020-05-04 16:00:00 18.9 14 Este 22 Este 0 -- -- 81
2020-05-04 15:00:00 17.4 9 Noroeste 30 Oeste 0 -- -- 87
2020-05-04 14:00:00 21.2 17 Oeste 30 Oeste 0 -- -- 68
2020-05-04 13:00:00 21.7 19 Oeste 28 Oeste 0 -- -- 72
2020-05-04 12:00:00 23.9 5 Norte 9 Norte 0 -- -- 75
2020-05-04 11:00:00 21.9 3 Norte 8 Nordeste 0 -- -- 81
2020-05-04 10:00:00 20.2 3 Este 8 Nordeste 0 -- -- 94
2020-05-04 09:00:00 16 3 Este 7 Sudeste 0 -- -- 100
2020-05-04 08:00:00 13 3 Sudeste 8 Sudeste 0 -- -- 100
2020-05-04 07:00:00 11.8 2 Sur 9 Sur 0 -- -- 99
2020-05-04 06:00:00 11.8 4 Oeste 12 Oeste 0 -- -- 99
2020-05-04 05:00:00 11.7 3 Oeste 5 Noroeste 0 -- -- 98
2020-05-04 04:00:00 12.8 5 Oeste 6 Oeste 0 -- -- 98
2020-05-04 03:00:00 13.4 6 Sur 8 Sur 0 -- -- 98
2020-05-04 02:00:00 14 3 Sur 8 Oeste 0 -- -- 98
2020-05-04 01:00:00 14.3 3 Noroeste 6 Noroeste 0 -- -- 98
2020-05-04 00:00:00 14.5 5 Sudeste 8 Sur 0 -- -- 97
2020-05-03 23:00:00 14.9 5 Oeste 14 Oeste 0 -- -- 96
2020-05-03 22:00:00 15 9 Oeste 21 Oeste 0 -- -- 95
2020-05-03 21:00:00 15.6 8 Noroeste 18 Oeste 0 -- -- 93
2020-05-03 20:00:00 16.4 9 Nordeste 19 Nordeste 0 -- -- 89
2020-05-03 19:00:00 17.4 9 Nordeste 20 Nordeste 0 -- -- 86
2020-05-03 18:00:00 18 14 Nordeste 26 Este 0 -- -- 84
2020-05-03 17:00:00 18.6 14 Nordeste 31 Este 0 -- -- 81
2020-05-03 16:00:00 18.7 18 Nordeste 36 Nordeste 0 -- -- 80
2020-05-03 15:00:00 19.8 19 Nordeste 35 Este 0 -- -- 76
2020-05-03 14:00:00 19.1 13 Nordeste 23 Nordeste 0 -- -- 79
2020-05-03 13:00:00 18.1 8 Nordeste 13 Norte 0 -- -- 78
2020-05-03 12:00:00 17.2 7 Noroeste 12 Norte 0 -- -- 78
2020-05-03 11:00:00 17.6 6 Norte 11 Norte 0 -- -- 75
2020-05-03 10:00:00 17.3 4 Norte 9 Norte 0 -- -- 79
2020-05-03 09:00:00 15.2 0 Calma 5 Oeste 0 -- -- 88
2020-05-03 08:00:00 12.3 3 Sudoeste 10 Sur 0 -- -- 93
2020-05-03 07:00:00 12 4 Sur 6 Sur 0 -- -- 90
2020-05-03 06:00:00 13.9 3 Este 16 Sur 0 -- -- 85
2020-05-03 05:00:00 15.5 11 Sur 16 Sudoeste 0 -- -- 82
2020-05-03 04:00:00 15.1 9 Sur 19 Sudoeste 0 -- -- 83
2020-05-03 03:00:00 16.7 13 Sudoeste 21 Sudoeste 0 -- -- 77
2020-05-03 02:00:00 15.7 9 Sudoeste 14 Sudoeste 0 -- -- 80
2020-05-03 01:00:00 15.6 9 Sur 14 Sur 0 -- -- 80
2020-05-03 00:00:00 15.9 7 Este 11 Sudoeste 0 -- -- 83
2020-05-02 23:00:00 16.5 6 Oeste 17 Oeste 0 -- -- 79
2020-05-02 22:00:00 18.8 13 Sudoeste 24 Sudoeste 0 -- -- 66
2020-05-02 21:00:00 18.8 4 Este 9 Sudeste 0 -- -- 76
2020-05-02 20:00:00 18.7 4 Norte 36 Oeste 0 -- -- 76
2020-05-02 19:00:00 23.7 19 Oeste 36 Oeste 0 -- -- 55
2020-05-02 18:00:00 24.3 19 Oeste 41 Oeste 0 -- -- 51
2020-05-02 17:00:00 24.2 21 Oeste 53 Oeste 0 -- -- 54
2020-05-02 16:00:00 23.4 19 Sudoeste 36 Sudoeste 0 -- -- 53
2020-05-02 15:00:00 23.8 21 Oeste 45 Oeste 0 -- -- 53
2020-05-02 14:00:00 22 21 Sudoeste 43 Sudoeste 0 -- -- 58
2020-05-02 13:00:00 21.7 23 Sudoeste 36 Oeste 0 -- -- 61
2020-05-02 12:00:00 21.7 19 Sudoeste 41 Sur 0 -- -- 66
2020-05-02 11:00:00 20.7 20 Sudoeste 35 Sur 0 -- -- 69
2020-05-02 10:00:00 19.3 17 Sudoeste 45 Sudoeste 0 -- -- 73
2020-05-02 09:00:00 18.9 24 Sudoeste 42 Sudoeste 0 -- -- 72
2020-05-02 08:00:00 18.2 19 Sudoeste 37 Sudoeste 0 -- -- 74
2020-05-02 07:00:00 18 18 Sudoeste 34 Sur 0 -- -- 75
2020-05-02 06:00:00 18 17 Sudoeste 36 Sudoeste 0 -- -- 75
2020-05-02 05:00:00 18.1 24 Sur 46 Sudoeste 0 -- -- 75
2020-05-02 04:00:00 18.4 24 Sudoeste 42 Sudoeste 0 -- -- 74
2020-05-02 03:00:00 18.2 23 Sur 48 Sur 0 -- -- 76
2020-05-02 02:00:00 17.8 14 Sur 40 Sur 0 -- -- 80
2020-05-02 01:00:00 18.3 22 Sur 46 Sur 0 -- -- 78
2020-05-02 00:00:00 18.6 10 Sur 35 Sudoeste 0 -- -- 76
2020-05-01 23:00:00 18.8 20 Sudoeste 37 Sur 0 -- -- 74
2020-05-01 22:00:00 18.9 14 Sudoeste 37 Sudoeste 0 -- -- 73
2020-05-01 21:00:00 19.8 26 Sudoeste 51 Oeste 0 -- -- 70
2020-05-01 20:00:00 21 20 Sudoeste 57 Sudoeste 0 -- -- 69
2020-05-01 19:00:00 21.9 30 Sudoeste 51 Sudoeste 0 -- -- 66
2020-05-01 18:00:00 22.4 29 Sudoeste 56 Sudoeste 0 -- -- 65
2020-05-01 17:00:00 22.8 32 Sudoeste 53 Oeste 0 -- -- 65
2020-05-01 16:00:00 22.8 23 Sudoeste 55 Sudoeste 0 -- -- 68
2020-05-01 15:00:00 22.9 23 Sudoeste 57 Sudoeste 0 -- -- 67
2020-05-01 14:00:00 21.8 27 Sudoeste 49 Sudoeste 0 -- -- 69
2020-05-01 13:00:00 20.5 26 Sudoeste 54 Sudoeste 0 -- -- 75
2020-05-01 12:00:00 19.3 29 Sudoeste 53 Sudoeste 0 -- -- 76
2020-05-01 11:00:00 18.6 26 Sudoeste 53 Sur 0 -- -- 78
2020-05-01 10:00:00 18 21 Sudoeste 52 Sur 0.2 -- -- 81
2020-05-01 09:00:00 18.4 27 Sudoeste 58 Sudoeste 0 -- -- 76
2020-05-01 08:00:00 18.5 26 Sudoeste 53 Sur 0 -- -- 75
2020-05-01 07:00:00 18.3 26 Sudoeste 50 Sudoeste 0 -- -- 77
2020-05-01 06:00:00 17.8 26 Sudoeste 50 Sur 0 -- -- 79
2020-05-01 05:00:00 17 26 Sur 50 Sur 0 -- -- 83
2020-05-01 04:00:00 16.5 18 Sur 42 Sur 0 -- -- 86
2020-05-01 03:00:00 16.7 22 Sur 40 Sudoeste 0 -- -- 85
2020-05-01 02:00:00 17.2 23 Sur 45 Sudoeste 0 -- -- 81
2020-05-01 01:00:00 16.6 23 Sur 46 Sudoeste 0.4 -- -- 85
2020-05-01 00:00:00 17.6 24 Sudoeste 41 Sudoeste 0 -- -- 77
2020-04-30 23:00:00 17 23 Sur 54 Sudoeste 0 -- -- 80
2020-04-30 22:00:00 17.2 21 Sudoeste 51 Sur 0 -- -- 77
2020-04-30 21:00:00 17.5 29 Sudoeste 60 Sudoeste 0 -- -- 73
2020-04-30 20:00:00 17.7 32 Sudoeste 62 Sudoeste 0 -- -- 71
2020-04-30 19:00:00 17.7 34 Sudoeste 59 Sudoeste 0 -- -- 72
2020-04-30 18:00:00 19.6 30 Sudoeste 61 Sudoeste 0 -- -- 61
2020-04-30 17:00:00 18.1 31 Sudoeste 67 Sudoeste 0 -- -- 62
2020-04-30 16:00:00 18.4 28 Sudoeste 61 Sudoeste 0 -- -- 61
2020-04-30 15:00:00 19.6 24 Sudoeste 49 Sudoeste 0 -- -- 64
2020-04-30 14:00:00 18.5 26 Sudoeste 56 Sudoeste 0 -- -- 64
2020-04-30 13:00:00 17.6 21 Sudoeste 45 Sur 0.2 -- -- 71
2020-04-30 12:00:00 14.1 19 Sudoeste 35 Sudoeste 0 -- -- 84
2020-04-30 11:00:00 13.4 21 Sur 36 Sur 0.2 -- -- 85
2020-04-30 10:00:00 14.2 16 Sudoeste 38 Sudoeste 0 -- -- 80
2020-04-30 09:00:00 12.8 20 Sur 39 Sudoeste 0 -- -- 81
2020-04-30 08:00:00 13.5 19 Sudoeste 45 Sudoeste 0 -- -- 74
2020-04-30 07:00:00 13.4 24 Sudoeste 40 Sur 0 -- -- 74
2020-04-30 06:00:00 12.6 20 Sudoeste 36 Oeste 0.2 -- -- 82
2020-04-30 05:00:00 12.3 17 Sudoeste 37 Sudoeste 0.2 -- -- 82
2020-04-30 04:00:00 12.2 14 Sudoeste 33 Sudoeste 0.4 -- -- 84
2020-04-30 03:00:00 12.9 19 Sudoeste 45 Sur 0 -- -- 79
2020-04-30 02:00:00 12.5 18 Sudoeste 39 Sudoeste 0 -- -- 82
2020-04-30 01:00:00 12.4 18 Sudoeste 37 Sudoeste 0.2 -- -- 82
2020-04-30 00:00:00 13.8 24 Sudoeste 62 Sudoeste 0 -- -- 70
2020-04-29 23:00:00 13.3 18 Sudoeste 38 Sudoeste 0 -- -- 78
2020-04-29 22:00:00 13.9 19 Sudoeste 40 Sudoeste 0 -- -- 72
2020-04-29 21:00:00 13.7 18 Sudoeste 37 Sudoeste 0 -- -- 78
2020-04-29 20:00:00 14.3 17 Sudoeste 54 Sudoeste 0 -- -- 73
2020-04-29 19:00:00 14.1 18 Sudoeste 35 Oeste 0 -- -- 77
2020-04-29 18:00:00 14.6 17 Sudoeste 56 Sudoeste 0.2 -- -- 77
2020-04-29 17:00:00 17.2 28 Sudoeste 60 Sur 0 -- -- 62
2020-04-29 16:00:00 17.1 21 Sudoeste 44 Sudoeste 0 -- -- 58
2020-04-29 15:00:00 16.5 21 Sudoeste 58 Sudoeste 0 -- -- 63
2020-04-29 14:00:00 14.9 23 Oeste 42 Oeste 0.2 -- -- 81
2020-04-29 13:00:00 15.4 12 Oeste 36 Oeste 0.2 -- -- 79
2020-04-29 12:00:00 15 17 Sudoeste 42 Sudoeste 0 -- -- 77
2020-04-29 11:00:00 14.3 8 Sudoeste 39 Sudoeste 0 -- -- 87
2020-04-29 10:00:00 13.4 10 Sudoeste 30 Sudoeste 0.2 -- -- 89
2020-04-29 09:00:00 13.8 12 Sudoeste 28 Sudoeste 0 -- -- 82
2020-04-29 08:00:00 13.4 18 Sudoeste 46 Sur 0 -- -- 83
2020-04-29 07:00:00 14.3 19 Sudoeste 51 Sur 0 -- -- 73
2020-04-29 06:00:00 14.7 25 Sur 50 Sur 0 -- -- 68
2020-04-29 05:00:00 14.9 27 Sur 61 Sur 0 -- -- 66
2020-04-29 04:00:00 15.2 28 Sudoeste 55 Sudoeste 0 -- -- 64
2020-04-29 03:00:00 15.1 27 Sur 56 Sudoeste 0 -- -- 65
2020-04-29 02:00:00 15.1 33 Sudoeste 59 Sur 0 -- -- 64
2020-04-29 01:00:00 14.9 25 Sudoeste 45 Sur 0 -- -- 65
2020-04-29 00:00:00 14.9 18 Sur 36 Sur 0 -- -- 61